Main page
METAR-TAF:

METAR-TAF

Airports :

Zagreb, Croatia

Zagreb Airport

latitude: 45-44N, longitude: 016-04E, elevation: 106 m

Current weather observation

The report was made 23 minutes ago, at 11:30 UTC
Wind 5 kt from variable directions
Temperature 24°C
Humidity 36%
Pressure 1020 hPa
Visibility 10 km or more
no clouds below 1500 m and no cumulonimbus

METAR: LDZA 211130Z VRB05KT CAVOK 24/08 Q1020 NOSIG

Time: 13:53 (11:53 UTC)

Forecast

The report was made 28 minutes ago, at 11:25 UTC
Forecast valid from 21 at 12 UTC to 22 at 12 UTC
Wind 10 kt from the Northeast
Visibility 10 km or more
no clouds below 1500 m and no cumulonimbus
Becoming
from 21 at 17 UTC to 21 at 19 UTC
Wind 2 kt from variable directions

TAF: LDZA 211125Z 2112/2212 05010KT CAVOK TX26/2113Z TN09/2203Z BECMG 2117/2119 VRB02KT

Weather observations and forecasts of more than 4000 airports (METAR and TAF reports).

The available stations are represented by yellow and red dots on the map.

Hover mouse over dot to see the name of the station.

Then click to see weather observations and forecasts.

To change the map : click on the green buttons with a black cross to zoom in, on the green button with a dash to zoom out, or on the green arrows for adjacent maps.


METAR-TAF: